Time;durP1;ratioP1;P1;durP2;ratioP2;P2;SDS_P1;SDS_P2;PMS_P1;PMS_P2;Temp;Humidity;BMP_temperature;BMP_pressure;BME280_temperature;BME280_humidity;BME280_pressure;Samples;Min_cycle;Max_cycle;Signal;HPM_P1;HPM_P2
2023/11/19 00:00:11;;;;;;;23.80;21.80;;;;;;;4.42;100.00;100925.16;5015585;28;20041;-74
2023/11/19 00:02:39;;;;;;;26.80;24.67;;;;;;;4.50;100.00;100912.03;5013556;28;20123;-75
2023/11/19 00:05:08;;;;;;;25.13;23.13;;;;;;;4.26;100.00;100926.75;5011267;28;20451;-74
2023/11/19 00:07:36;;;;;;;26.80;24.67;;;;;;;4.23;100.00;100923.63;5012282;28;20069;-74
2023/11/19 00:10:10;;;;;;;24.80;22.75;;;;;;;4.53;100.00;100930.13;5010210;28;20113;-75
2023/11/19 00:12:39;;;;;;;25.92;23.83;;;;;;;4.41;100.00;100924.34;5013610;28;20045;-75
2023/11/19 00:15:11;;;;;;;27.00;24.90;;;;;;;4.38;100.00;100927.28;5009084;28;20496;-75
2023/11/19 00:17:38;;;;;;;27.00;24.90;;;;;;;4.17;100.00;100929.53;5011982;28;20050;-75
2023/11/19 00:20:07;;;;;;;26.92;24.73;;;;;;;4.19;100.00;100920.50;5014597;28;20042;-74
2023/11/19 00:22:34;;;;;;;27.17;25.15;;;;;;;4.25;100.00;100922.50;5014470;28;20072;-75
2023/11/19 00:25:02;;;;;;;27.25;25.15;;;;;;;4.47;100.00;100926.31;5010586;28;20137;-77
2023/11/19 00:27:28;;;;;;;26.20;24.20;;;;;;;4.51;100.00;100932.94;5013283;28;20046;-77
2023/11/19 00:29:57;;;;;;;26.95;24.90;;;;;;;4.65;100.00;100926.19;5016513;28;20056;-77
2023/11/19 00:32:24;;;;;;;26.95;24.85;;;;;;;4.53;100.00;100930.13;5013032;28;20049;-78
2023/11/19 00:34:51;;;;;;;25.27;23.27;;;;;;;4.49;100.00;100926.19;5012618;28;20041;-77
2023/11/19 00:37:18;;;;;;;24.80;22.80;;;;;;;4.55;100.00;100928.16;5012443;28;20522;-77
2023/11/19 00:39:45;;;;;;;25.50;23.50;;;;;;;4.27;100.00;100931.06;5012212;28;20502;-77
2023/11/19 00:42:13;;;;;;;28.17;25.98;;;;;;;4.56;100.00;100937.69;5012911;28;20060;-77
2023/11/19 00:44:41;;;;;;;25.33;23.33;;;;;;;4.38;100.00;100932.53;5014766;28;20140;-77
2023/11/19 00:47:09;;;;;;;26.08;24.08;;;;;;;4.02;100.00;100921.41;5012641;28;20041;-77
2023/11/19 00:49:36;;;;;;;28.65;26.27;;;;;;;4.39;100.00;100922.84;5013544;28;20543;-77
2023/11/19 00:52:03;;;;;;;26.95;24.85;;;;;;;4.30;100.00;100919.41;5015282;28;20045;-78
2023/11/19 00:54:30;;;;;;;26.00;24.00;;;;;;;4.43;100.00;100921.56;5010918;28;20125;-77
2023/11/19 00:56:56;;;;;;;26.95;24.95;;;;;;;4.16;100.00;100917.38;5009535;28;20565;-78
2023/11/19 00:59:23;;;;;;;29.67;27.48;;;;;;;3.90;100.00;100916.44;5008224;28;20042;-77
2023/11/19 01:01:50;;;;;;;30.10;27.25;;;;;;;4.27;100.00;100910.00;5015885;28;20541;-77
2023/11/19 01:04:19;;;;;;;28.55;26.27;;;;;;;4.49;100.00;100913.03;5011430;28;20132;-77
2023/11/19 01:06:46;;;;;;;26.52;24.33;;;;;;;4.46;100.00;100916.78;5015095;28;20046;-77
2023/11/19 01:09:13;;;;;;;27.90;25.70;;;;;;;4.16;100.00;100926.06;5013857;28;20041;-78
2023/11/19 01:11:39;;;;;;;30.90;28.40;;;;;;;3.93;100.00;100920.53;5010037;28;20053;-77
2023/11/19 01:14:06;;;;;;;33.33;30.73;;;;;;;4.05;100.00;100921.09;5011489;28;20452;-78
2023/11/19 01:16:33;;;;;;;29.95;27.55;;;;;;;4.31;100.00;100926.28;5012930;28;20053;-77
2023/11/19 01:19:04;;;;;;;26.05;23.95;;;;;;;4.31;100.00;100940.25;5013609;28;20053;-77
2023/11/19 01:21:32;;;;;;;27.10;24.98;;;;;;;4.48;100.00;100929.78;5011716;28;20487;-78
2023/11/19 01:23:59;;;;;;;25.52;23.52;;;;;;;4.41;100.00;100924.34;5014161;28;20041;-77
2023/11/19 01:26:26;;;;;;;25.73;23.52;;;;;;;3.93;100.00;100922.34;5014543;28;20180;-75
2023/11/19 01:28:56;;;;;;;26.55;24.45;;;;;;;4.28;100.00;100916.09;5012964;28;20100;-75
2023/11/19 01:31:22;;;;;;;26.25;24.15;;;;;;;4.30;100.00;100925.47;5013304;28;20054;-75
2023/11/19 01:33:49;;;;;;;27.63;25.52;;;;;;;4.42;100.00;100928.63;5012452;28;20071;-75
2023/11/19 01:36:16;;;;;;;31.65;29.10;;;;;;;4.51;100.00;100924.22;5016382;28;20158;-75
2023/11/19 01:38:44;;;;;;;29.85;27.55;;;;;;;4.49;100.00;100927.00;5011565;28;20061;-75
2023/11/19 01:41:11;;;;;;;29.10;27.00;;;;;;;4.40;100.00;100925.31;5013979;28;20046;-75
2023/11/19 01:43:41;;;;;;;27.58;25.38;;;;;;;4.31;100.00;100931.53;5015257;28;20632;-75
2023/11/19 01:46:09;;;;;;;25.73;23.73;;;;;;;4.47;100.00;100928.13;5011776;28;20534;-75
2023/11/19 01:48:42;;;;;;;25.65;23.65;;;;;;;4.32;100.00;100923.47;5016329;28;20081;-75
2023/11/19 01:51:10;;;;;;;26.77;24.77;;;;;;;4.16;100.00;100925.25;5013463;28;20442;-75
2023/11/19 01:53:38;;;;;;;25.05;23.00;;;;;;;4.12;100.00;100917.69;5016190;28;20054;-75
2023/11/19 01:56:10;;;;;;;24.40;22.50;;;;;;;4.24;100.00;100920.03;5012007;28;20489;-75
2023/11/19 01:58:38;;;;;;;22.35;20.65;;;;;;;4.22;100.00;100919.34;5013476;28;20050;-75
2023/11/19 02:01:07;;;;;;;25.27;23.30;;;;;;;4.35;100.00;100923.16;5013967;28;20081;-75
2023/11/19 02:03:34;;;;;;;26.92;24.83;;;;;;;4.53;100.00;100914.34;5015864;28;20048;-75
2023/11/19 02:06:02;;;;;;;26.63;24.52;;;;;;;4.29;100.00;100921.16;5014825;28;20046;-75
2023/11/19 02:08:30;;;;;;;26.00;23.90;;;;;;;4.47;100.00;100914.97;5011273;28;20046;-75
2023/11/19 02:10:57;;;;;;;25.85;23.95;;;;;;;4.23;100.00;100905.22;5011648;28;20049;-75
2023/11/19 02:13:27;;;;;;;25.17;23.25;;;;;;;4.44;100.00;100916.13;5019176;28;20041;-77
2023/11/19 02:15:54;;;;;;;26.95;24.85;;;;;;;4.41;100.00;100921.69;5016291;28;20046;-78
2023/11/19 02:18:22;;;;;;;28.67;26.45;;;;;;;4.36;100.00;100919.56;5012737;28;20155;-78
2023/11/19 02:20:50;;;;;;;26.75;24.65;;;;;;;4.32;100.00;100918.22;5013594;28;20112;-78
2023/11/19 02:23:17;;;;;;;27.75;25.55;;;;;;;4.31;100.00;100924.47;5019049;28;20396;-78
2023/11/19 02:25:52;;;;;;;29.02;26.73;;;;;;;4.30;100.00;100922.03;5017598;28;20041;-77
2023/11/19 02:28:21;;;;;;;28.58;26.33;;;;;;;4.17;100.00;100913.75;5016104;28;20045;-77
2023/11/19 02:30:48;;;;;;;26.92;24.88;;;;;;;4.07;100.00;100912.06;4969751;28;1335929;-77
2023/11/19 02:33:15;;;;;;;29.88;27.58;;;;;;;3.67;100.00;100910.09;5015417;28;20037;-77
2023/11/19 02:35:42;;;;;;;30.13;27.83;;;;;;;3.85;100.00;100904.75;5017515;28;20049;-77
2023/11/19 02:38:09;;;;;;;27.83;25.73;;;;;;;3.97;100.00;100908.75;5016977;28;20041;-77
2023/11/19 02:40:36;;;;;;;27.00;24.90;;;;;;;4.02;100.00;100909.09;5017188;28;20068;-77
2023/11/19 02:43:04;;;;;;;26.55;24.40;;;;;;;3.77;100.00;100910.78;5017657;28;20046;-77
2023/11/19 02:45:33;;;;;;;30.38;27.70;;;;;;;4.00;100.00;100915.50;5014692;28;20077;-78
2023/11/19 02:48:06;;;;;;;27.63;25.52;;;;;;;4.08;100.00;100916.34;5014072;28;20046;-78
2023/11/19 02:50:33;;;;;;;27.73;25.63;;;;;;;3.98;100.00;100906.94;5016698;28;20053;-78
2023/11/19 02:53:01;;;;;;;29.20;26.90;;;;;;;3.88;100.00;100921.03;5016276;28;20397;-75
2023/11/19 02:55:30;;;;;;;26.95;24.95;;;;;;;4.04;100.00;100916.81;5016391;28;20045;-77
2023/11/19 02:57:59;;;;;;;27.40;25.30;;;;;;;3.96;100.00;100922.03;5016491;28;20053;-78
2023/11/19 03:00:33;;;;;;;26.25;24.23;;;;;;;4.04;100.00;100920.28;5013829;28;20054;-77
2023/11/19 03:03:10;;;;;;;25.45;23.45;;;;;;;3.93;100.00;100922.34;5015134;28;20072;-77
2023/11/19 03:05:37;;;;;;;26.60;24.50;;;;;;;4.08;100.00;100933.91;5017763;28;20049;-77
2023/11/19 03:08:03;;;;;;;26.73;24.63;;;;;;;4.07;100.00;100935.72;5015852;28;20050;-77
2023/11/19 03:10:30;;;;;;;25.58;23.48;;;;;;;4.01;100.00;100938.16;5014114;28;21095;-78
2023/11/19 03:12:59;;;;;;;32.30;29.90;;;;;;;4.11;100.00;100936.22;5012569;28;20060;-78
2023/11/19 03:15:26;;;;;;;28.75;26.45;;;;;;;3.79;100.00;100943.00;5014356;28;20571;-78
2023/11/19 03:17:53;;;;;;;26.98;24.88;;;;;;;4.04;100.00;100941.31;5017120;28;20046;-77
2023/11/19 03:20:23;;;;;;;27.85;25.63;;;;;;;4.15;100.00;100939.38;5020075;28;20049;-78
2023/11/19 03:22:50;;;;;;;28.30;26.00;;;;;;;3.97;100.00;100940.28;5016604;28;20068;-78
2023/11/19 03:25:17;;;;;;;32.35;29.90;;;;;;;3.85;100.00;100945.00;5018470;28;20057;-77
2023/11/19 03:27:44;;;;;;;28.58;26.30;;;;;;;3.96;100.00;100940.44;5013002;28;20523;-77
2023/11/19 03:30:11;;;;;;;30.95;28.50;;;;;;;3.88;100.00;100930.72;5012859;28;20472;-78
2023/11/19 03:32:39;;;;;;;28.27;26.08;;;;;;;3.85;100.00;100920.53;5012096;28;20049;-78
2023/11/19 03:35:08;;;;;;;26.88;24.77;;;;;;;3.90;100.00;100929.59;5013957;28;20049;-77
2023/11/19 03:37:37;;;;;;;28.35;26.05;;;;;;;3.83;100.00;100923.28;5015240;28;20120;-77
2023/11/19 03:40:05;;;;;;;26.13;24.02;;;;;;;3.78;100.00;100922.13;5019129;28;20045;-78
2023/11/19 03:42:32;;;;;;;26.23;24.15;;;;;;;3.65;100.00;100933.06;5018132;28;20119;-78
2023/11/19 03:44:59;;;;;;;27.02;24.92;;;;;;;3.84;100.00;100937.25;5017122;28;20053;-78
2023/11/19 03:47:26;;;;;;;28.40;26.20;;;;;;;3.83;100.00;100943.50;5014813;28;20046;-77
2023/11/19 03:49:53;;;;;;;27.08;24.98;;;;;;;3.92;100.00;100952.25;5016993;28;20446;-77
2023/11/19 03:52:20;;;;;;;28.58;26.35;;;;;;;3.83;100.00;100962.72;5017623;28;20048;-78
2023/11/19 03:54:48;;;;;;;27.48;25.38;;;;;;;4.11;100.00;100966.00;5015017;28;20132;-78
2023/11/19 03:57:16;;;;;;;25.30;23.30;;;;;;;4.02;100.00;100964.28;5010321;28;20050;-77
2023/11/19 03:59:43;;;;;;;25.27;23.27;;;;;;;4.13;100.00;100977.16;5011560;28;20050;-78
2023/11/19 04:02:11;;;;;;;27.40;25.35;;;;;;;4.18;100.00;100984.59;5015966;28;20041;-77
2023/11/19 04:04:38;;;;;;;26.08;24.08;;;;;;;4.22;100.00;100985.91;5014332;28;20061;-78
2023/11/19 04:07:06;;;;;;;27.10;25.00;;;;;;;4.23;100.00;100977.03;5012585;28;20042;-78
2023/11/19 04:09:33;;;;;;;27.98;25.88;;;;;;;4.26;100.00;100981.16;5016513;28;20053;-79
2023/11/19 04:12:02;;;;;;;30.77;28.38;;;;;;;4.37;100.00;100988.75;5014442;28;20053;-77
2023/11/19 04:14:29;;;;;;;27.65;25.55;;;;;;;4.32;100.00;100985.78;5012606;28;20042;-77
2023/11/19 04:16:56;;;;;;;33.67;31.27;;;;;;;4.50;100.00;100999.66;5014549;28;20435;-77
2023/11/19 04:19:24;;;;;;;27.17;25.08;;;;;;;4.57;100.00;100997.22;5013207;28;20053;-78
2023/11/19 04:21:52;;;;;;;26.20;24.10;;;;;;;4.49;100.00;101005.91;5010814;28;20045;-75
2023/11/19 04:24:19;;;;;;;29.02;26.83;;;;;;;4.43;100.00;101017.06;5013714;28;20505;-78
2023/11/19 04:26:47;;;;;;;27.48;25.38;;;;;;;4.26;100.00;101007.44;5014699;28;20053;-78
2023/11/19 04:29:17;;;;;;;31.13;28.83;;;;;;;4.24;100.00;101012.88;5012216;28;20049;-77
2023/11/19 04:31:45;;;;;;;26.52;24.52;;;;;;;4.30;100.00;101011.44;5011960;28;20147;-78
2023/11/19 04:34:12;;;;;;;26.40;24.38;;;;;;;4.35;100.00;101019.66;5013394;28;20549;-78
2023/11/19 04:36:39;;;;;;;29.10;26.90;;;;;;;4.35;100.00;101015.22;5013731;28;20049;-78
2023/11/19 04:39:09;;;;;;;31.65;29.23;;;;;;;4.33;100.00;101013.75;5014433;28;20073;-78
2023/11/19 04:41:36;;;;;;;27.83;25.65;;;;;;;4.14;100.00;101009.53;5017019;28;20043;-77
2023/11/19 04:44:03;;;;;;;29.52;27.25;;;;;;;3.94;100.00;101014.19;5010476;28;20108;-78
2023/11/19 04:46:31;;;;;;;28.10;26.00;;;;;;;3.84;100.00;101016.09;5012977;28;20045;-77
2023/11/19 04:48:58;;;;;;;26.98;24.92;;;;;;;3.93;100.00;101024.84;5011003;28;20578;-78
2023/11/19 04:51:29;;;;;;;25.55;23.55;;;;;;;4.13;100.00;101021.03;5010108;28;20038;-78
2023/11/19 04:53:56;;;;;;;25.65;23.63;;;;;;;4.18;100.00;101020.56;5011805;28;20050;-78
2023/11/19 04:56:24;;;;;;;25.67;23.67;;;;;;;4.22;100.00;101027.16;5009198;28;20064;-78
2023/11/19 04:58:51;;;;;;;26.48;24.38;;;;;;;4.02;100.00;101027.38;5010044;28;20052;-78
2023/11/19 05:01:17;;;;;;;28.58;26.10;;;;;;;3.69;100.00;101039.47;5009716;28;20506;-78
2023/11/19 05:03:46;;;;;;;27.90;25.60;;;;;;;3.88;100.00;101047.16;5011228;28;20065;-78
2023/11/19 05:06:13;;;;;;;27.55;25.42;;;;;;;3.96;100.00;101051.63;5012301;28;20100;-77
2023/11/19 05:08:40;;;;;;;25.23;23.23;;;;;;;4.07;100.00;101050.56;5012796;28;20455;-78
2023/11/19 05:11:07;;;;;;;27.23;25.02;;;;;;;4.07;100.00;101046.13;5012908;28;20050;-78
2023/11/19 05:13:34;;;;;;;26.70;24.60;;;;;;;4.02;100.00;101052.84;5008024;28;20061;-78
2023/11/19 05:16:00;;;;;;;25.98;23.88;;;;;;;4.09;100.00;101040.75;5009412;28;20132;-78
2023/11/19 05:18:27;;;;;;;26.65;24.65;;;;;;;4.00;100.00;101039.03;5011884;28;20459;-78
2023/11/19 05:20:56;;;;;;;24.60;22.70;;;;;;;4.16;100.00;101048.81;5011988;28;20513;-78
2023/11/19 05:23:23;;;;;;;26.10;24.10;;;;;;;4.14;100.00;101056.84;5012291;28;20049;-78
2023/11/19 05:25:49;;;;;;;23.40;21.60;;;;;;;4.16;100.00;101052.25;5013049;28;20054;-77
2023/11/19 05:28:16;;;;;;;22.00;20.30;;;;;;;4.11;100.00;101055.38;5012398;28;20475;-78
2023/11/19 05:30:43;;;;;;;22.30;20.50;;;;;;;4.20;100.00;101065.91;5011054;28;20144;-75
2023/11/19 05:33:10;;;;;;;21.65;20.05;;;;;;;4.29;100.00;101060.53;5017913;28;20042;-75
2023/11/19 05:35:37;;;;;;;22.05;20.45;;;;;;;3.98;100.00;101067.28;5014061;28;20046;-74
2023/11/19 05:38:06;;;;;;;23.70;22.00;;;;;;;3.81;100.00;101072.44;5010836;28;20046;-74
2023/11/19 05:40:33;;;;;;;26.88;24.60;;;;;;;3.87;100.00;101081.47;5011167;28;20088;-75
2023/11/19 05:43:00;;;;;;;25.15;23.35;;;;;;;3.76;100.00;101087.00;5012092;28;20065;-75
2023/11/19 05:45:27;;;;;;;25.23;23.42;;;;;;;3.80;100.00;101096.22;5011998;28;20107;-77
2023/11/19 05:47:53;;;;;;;23.00;21.40;;;;;;;4.11;100.00;101097.44;5014144;28;20053;-78
2023/11/19 05:50:20;;;;;;;23.60;21.88;;;;;;;4.17;100.00;101103.84;5018927;28;20619;-74
2023/11/19 05:52:47;;;;;;;24.40;22.58;;;;;;;4.15;100.00;101112.91;5009083;28;20145;-75
2023/11/19 05:55:16;;;;;;;22.75;21.15;;;;;;;4.26;100.00;101110.81;5015151;28;20050;-77
2023/11/19 05:57:43;;;;;;;22.13;20.63;;;;;;;4.16;100.00;101101.41;5018874;28;20057;-78
2023/11/19 06:00:12;;;;;;;21.70;20.23;;;;;;;4.37;100.00;101104.50;5011323;28;20057;-77
2023/11/19 06:02:39;;;;;;;25.33;22.73;;;;;;;4.50;100.00;101089.09;5008731;28;20052;-78
2023/11/19 06:05:07;;;;;;;24.65;22.65;;;;;;;4.48;100.00;101092.84;5007874;28;20065;-76
2023/11/19 06:07:35;;;;;;;23.55;21.85;;;;;;;4.27;100.00;101090.63;5011363;28;20103;-78
2023/11/19 06:10:02;;;;;;;23.88;22.25;;;;;;;4.38;100.00;101084.25;5010345;28;20124;-77
2023/11/19 06:12:31;;;;;;;24.77;22.98;;;;;;;4.39;100.00;101078.88;5010707;28;20131;-78
2023/11/19 06:14:58;;;;;;;24.02;22.23;;;;;;;4.28;100.00;101089.66;5011736;28;20058;-75
2023/11/19 06:17:25;;;;;;;26.10;24.20;;;;;;;4.46;100.00;101086.94;5013545;28;20054;-78
2023/11/19 06:19:52;;;;;;;23.83;22.02;;;;;;;4.19;100.00;101096.66;5013502;28;20054;-75
2023/11/19 06:22:19;;;;;;;24.35;22.50;;;;;;;4.34;100.00;101091.66;5017422;28;20064;-75
2023/11/19 06:24:46;;;;;;;25.52;23.63;;;;;;;4.46;100.00;101085.13;5011783;28;20050;-75
2023/11/19 06:27:13;;;;;;;25.77;23.75;;;;;;;4.42;100.00;101089.06;5011690;28;20046;-78
2023/11/19 06:29:41;;;;;;;25.38;23.48;;;;;;;4.69;100.00;101081.94;5011244;28;20060;-75
2023/11/19 06:32:08;;;;;;;25.17;23.27;;;;;;;4.48;100.00;101085.81;5010450;28;20124;-75
2023/11/19 06:34:35;;;;;;;23.90;22.10;;;;;;;4.63;100.00;101088.69;5011803;28;20151;-78
2023/11/19 06:37:04;;;;;;;25.63;23.63;;;;;;;4.96;100.00;101081.72;5009446;28;20556;-78
2023/11/19 06:39:31;;;;;;;25.30;23.35;;;;;;;4.89;100.00;101085.16;5012296;28;20050;-78
2023/11/19 06:41:57;;;;;;;79.55;54.20;;;;;;;5.03;100.00;101084.53;5013533;28;20601;-78
2023/11/19 06:44:27;;;;;;;26.23;24.30;;;;;;;4.83;100.00;101087.41;5010835;28;20577;-78
2023/11/19 06:46:56;;;;;;;22.95;21.35;;;;;;;5.01;100.00;101091.75;5014480;28;20573;-78
2023/11/19 06:49:23;;;;;;;26.88;24.83;;;;;;;4.95;100.00;101095.84;5010599;28;20070;-78
2023/11/19 06:51:49;;;;;;;26.58;24.55;;;;;;;5.14;100.00;101099.19;5013827;28;20061;-78
2023/11/19 06:54:17;;;;;;;24.02;22.13;;;;;;;4.74;100.00;101101.53;5010184;28;20061;-78
2023/11/19 06:56:43;;;;;;;24.40;22.50;;;;;;;5.27;100.00;101103.03;5014862;28;20103;-78
2023/11/19 06:59:10;;;;;;;24.58;22.67;;;;;;;5.23;100.00;101103.50;5015593;28;20053;-78
2023/11/19 07:01:38;;;;;;;24.88;22.98;;;;;;;5.30;100.00;101106.34;5015870;28;20132;-79
2023/11/19 07:04:09;;;;;;;25.52;23.63;;;;;;;4.99;100.00;101099.84;5013229;28;20054;-78
2023/11/19 07:06:36;;;;;;;25.23;23.33;;;;;;;5.43;100.00;101094.31;5014505;28;20050;-79
2023/11/19 07:09:09;;;;;;;25.60;23.60;;;;;;;5.30;100.00;101104.53;5015429;28;20145;-78
2023/11/19 07:11:37;;;;;;;27.10;24.90;;;;;;;6.12;100.00;101117.75;5015767;28;20137;-78
2023/11/19 07:14:04;;;;;;;27.45;25.25;;;;;;;5.58;100.00;101127.94;5015219;28;20066;-80
2023/11/19 07:16:31;;;;;;;26.10;24.00;;;;;;;5.87;100.00;101133.56;5013737;28;20415;-79
2023/11/19 07:18:59;;;;;;;26.10;24.10;;;;;;;5.85;100.00;101142.63;5013247;28;20053;-79
2023/11/19 07:21:30;;;;;;;25.33;23.23;;;;;;;6.07;100.00;101155.16;5012964;28;20049;-78
2023/11/19 07:23:57;;;;;;;26.67;24.55;;;;;;;6.36;100.00;101159.09;5014751;28;20057;-79
2023/11/19 07:26:28;;;;;;;26.50;24.40;;;;;;;5.11;100.00;101165.34;5014214;28;20506;-79
2023/11/19 07:28:56;;;;;;;27.25;24.95;;;;;;;5.08;100.00;101161.22;5013171;28;20823;-79
2023/11/19 07:31:23;;;;;;;24.90;23.00;;;;;;;4.69;100.00;101169.63;5021738;28;20052;-79
2023/11/19 07:33:50;;;;;;;26.65;24.45;;;;;;;5.77;100.00;101161.06;5021753;28;20054;-79
2023/11/19 07:36:17;;;;;;;27.90;25.70;;;;;;;6.67;100.00;101169.75;5015739;28;20128;-79
2023/11/19 07:38:46;;;;;;;28.77;26.48;;;;;;;5.41;100.00;101170.03;5012825;28;20045;-80
2023/11/19 07:41:13;;;;;;;29.38;27.08;;;;;;;5.88;100.00;101160.75;5012723;28;20053;-81
2023/11/19 07:43:41;;;;;;;25.63;23.52;;;;;;;6.14;100.00;101160.59;5014532;28;20458;-79
2023/11/19 07:46:12;;;;;;;26.88;24.65;;;;;;;7.82;100.00;101148.84;5016991;28;20042;-79
2023/11/19 07:48:39;;;;;;;27.23;25.13;;;;;;;7.57;100.00;101151.69;5014226;28;20049;-80
2023/11/19 07:51:08;;;;;;;27.48;25.27;;;;;;;6.01;100.00;101160.28;5015329;28;20050;-78
2023/11/19 07:53:37;;;;;;;29.77;27.38;;;;;;;6.19;100.00;101172.28;5013991;28;20571;-81
2023/11/19 07:56:06;;;;;;;29.77;27.33;;;;;;;6.89;100.00;101168.19;5013807;28;20045;-80
2023/11/19 07:58:33;;;;;;;31.45;28.95;;;;;;;7.86;100.00;101168.66;5013814;28;20056;-81
2023/11/19 08:01:01;;;;;;;33.25;30.48;;;;;;;7.81;100.00;101171.03;5014359;28;20051;-80
2023/11/19 08:03:29;;;;;;;28.42;26.13;;;;;;;7.69;100.00;101178.53;5011988;28;20041;-81
2023/11/19 08:05:57;;;;;;;29.33;26.52;;;;;;;8.18;100.00;101169.41;5014552;28;20131;-81
2023/11/19 08:08:24;;;;;;;29.30;27.00;;;;;;;6.85;100.00;101169.53;5013969;28;20046;-77
2023/11/19 08:10:57;;;;;;;30.35;27.95;;;;;;;7.56;100.00;101162.41;5015627;28;20060;-81
2023/11/19 08:13:26;;;;;;;29.95;27.55;;;;;;;7.72;100.00;101158.84;5016033;28;20049;-76
2023/11/19 08:15:53;;;;;;;27.42;25.33;;;;;;;7.50;100.00;101153.38;5013462;28;20064;-76
2023/11/19 08:18:20;;;;;;;27.85;25.65;;;;;;;9.66;100.00;101163.22;5015406;28;20845;-76
2023/11/19 08:20:52;;;;;;;28.73;26.55;;;;;;;8.42;100.00;101160.44;5016098;28;20435;-76
2023/11/19 08:23:19;;;;;;;29.48;26.98;;;;;;;9.25;100.00;101151.34;5012605;28;20046;-76
2023/11/19 08:25:46;;;;;;;30.30;28.00;;;;;;;9.58;100.00;101162.31;5013719;28;20439;-76
2023/11/19 08:28:13;;;;;;;32.13;29.73;;;;;;;8.59;100.00;101158.44;5014663;28;20042;-76
2023/11/19 08:30:41;;;;;;;29.90;27.70;;;;;;;8.57;100.00;101161.28;5012676;28;20458;-76
2023/11/19 08:33:08;;;;;;;29.75;27.45;;;;;;;8.09;100.00;101163.34;5012108;28;20045;-76
2023/11/19 08:35:35;;;;;;;28.88;26.58;;;;;;;8.30;100.00;101164.50;5011579;28;20057;-75
2023/11/19 08:38:02;;;;;;;34.92;31.83;;;;;;;9.35;100.00;101166.97;5011984;28;20355;-76
2023/11/19 08:40:29;;;;;;;29.35;27.23;;;;;;;9.63;100.00;101169.72;5016012;28;20069;-76
2023/11/19 08:42:56;;;;;;;30.00;27.70;;;;;;;8.79;100.00;101171.97;5013093;28;20050;-76
2023/11/19 08:45:25;;;;;;;27.67;25.38;;;;;;;9.73;100.00;101174.69;5013714;28;20049;-76
2023/11/19 08:47:54;;;;;;;27.70;25.40;;;;;;;10.38;100.00;101156.88;5014634;28;20060;-76
2023/11/19 08:50:21;;;;;;;28.60;26.13;;;;;;;9.40;100.00;101159.25;5013585;28;20049;-76
2023/11/19 08:52:47;;;;;;;28.33;25.92;;;;;;;10.76;100.00;101150.19;5013168;28;20053;-76
2023/11/19 08:55:14;;;;;;;31.60;28.90;;;;;;;10.48;100.00;101163.50;5014222;28;20412;-76
2023/11/19 08:57:42;;;;;;;36.38;26.55;;;;;;;11.83;100.00;101151.34;5014431;28;20042;-76
2023/11/19 09:00:09;;;;;;;27.00;24.70;;;;;;;10.71;100.00;101157.94;5012179;28;20078;-76
2023/11/19 09:02:36;;;;;;;27.45;25.25;;;;;;;11.28;100.00;101136.50;5017134;28;20468;-76
2023/11/19 09:05:07;;;;;;;27.90;25.73;;;;;;;9.98;100.00;101146.75;5012560;28;20052;-76
2023/11/19 09:07:34;;;;;;;29.77;27.40;;;;;;;11.15;100.00;101132.78;5011966;28;20045;-76
2023/11/19 09:10:01;;;;;;;31.02;28.52;;;;;;;10.87;100.00;101126.75;5012907;28;20486;-76
2023/11/19 09:12:28;;;;;;;29.70;27.40;;;;;;;11.60;100.00;101126.97;5013652;28;20041;-76
2023/11/19 09:14:58;;;;;;;28.92;26.73;;;;;;;10.11;100.00;101124.00;5013766;28;20045;-76
2023/11/19 09:17:25;;;;;;;29.40;27.00;;;;;;;10.57;100.00;101124.34;5011953;28;20049;-76
2023/11/19 09:19:52;;;;;;;28.67;26.27;;;;;;;12.20;100.00;101127.00;5014903;28;20041;-76
2023/11/19 09:22:20;;;;;;;29.38;26.88;;;;;;;10.96;100.00;101115.75;5011547;28;20045;-76
2023/11/19 09:24:48;;;;;;;26.85;24.55;;;;;;;11.33;100.00;101113.59;5014595;28;20064;-76
2023/11/19 09:27:14;;;;;;;27.80;25.60;;;;;;;12.10;100.00;101114.09;5016412;28;20498;-76
2023/11/19 09:29:43;;;;;;;28.13;25.92;;;;;;;11.20;100.00;101121.56;5012371;28;20050;-76
2023/11/19 09:32:10;;;;;;;31.60;29.20;;;;;;;11.40;100.00;101122.41;5015690;28;20048;-76
2023/11/19 09:34:36;;;;;;;28.90;26.67;;;;;;;10.27;100.00;101121.91;5013270;28;20058;-76
2023/11/19 09:37:04;;;;;;;30.35;28.05;;;;;;;11.53;100.00;101105.66;5015364;28;20478;-77
2023/11/19 09:39:32;;;;;;;28.95;26.58;;;;;;;10.60;100.00;101107.19;5015114;28;20059;-76
2023/11/19 09:41:59;;;;;;;26.20;24.20;;;;;;;12.00;100.00;101095.88;5014121;28;20050;-76
2023/11/19 09:44:28;;;;;;;23.35;21.55;;;;;;;9.61;100.00;101108.88;5014552;28;20427;-75
2023/11/19 09:47:01;;;;;;;24.00;22.23;;;;;;;10.40;100.00;101105.22;5017833;28;20080;-76
2023/11/19 09:49:29;;;;;;;25.08;23.17;;;;;;;11.99;100.00;101091.59;5015505;28;20133;-82
2023/11/19 09:51:56;;;;;;;25.35;23.35;;;;;;;12.49;100.00;101083.09;5013816;28;20046;-76
2023/11/19 09:54:23;;;;;;;23.40;21.60;;;;;;;10.77;100.00;101093.38;5015403;28;20049;-86
2023/11/19 09:56:52;;;;;;;23.35;21.65;;;;;;;10.56;100.00;101101.47;5014148;28;20459;-82
2023/11/19 09:59:19;;;;;;;22.15;20.45;;;;;;;10.26;100.00;101098.19;5017826;28;20068;-82
2023/11/19 10:01:47;;;;;;;21.80;20.20;;;;;;;7.79;100.00;101110.34;5010213;28;20127;-82
2023/11/19 10:04:16;;;;;;;22.30;20.60;;;;;;;8.86;100.00;101099.50;5011519;28;20111;-82
2023/11/19 10:06:44;;;;;;;24.13;22.15;;;;;;;10.36;100.00;101098.69;5017208;28;20049;-82
2023/11/19 10:09:12;;;;;;;24.92;23.02;;;;;;;10.92;100.00;101093.25;5009147;28;20050;-82
2023/11/19 10:11:39;;;;;;;22.05;20.45;;;;;;;9.12;100.00;101103.50;5011836;28;20439;-83
2023/11/19 10:14:08;;;;;;;22.42;20.83;;;;;;;10.57;100.00;101096.97;5014708;28;20056;-84
2023/11/19 10:16:35;;;;;;;22.45;20.75;;;;;;;9.29;100.00;101094.31;5014049;28;20127;-82
2023/11/19 10:19:03;;;;;;;22.30;20.50;;;;;;;10.23;100.00;101080.00;5009609;28;20049;-82
2023/11/19 10:21:33;;;;;;;23.20;21.40;;;;;;;11.36;100.00;101077.81;5011478;28;20585;-82
2023/11/19 10:24:00;;;;;;;24.33;22.52;;;;;;;11.61;100.00;101072.72;5010580;28;20484;-83
2023/11/19 10:26:28;;;;;;;24.58;22.77;;;;;;;9.84;100.00;101087.47;5013558;28;20072;-82
2023/11/19 10:28:57;;;;;;;24.02;22.23;;;;;;;10.11;100.00;101074.41;5014249;28;20578;-81
2023/11/19 10:31:28;;;;;;;22.58;20.88;;;;;;;11.02;100.00;101068.13;5011339;28;20060;-81
2023/11/19 10:33:58;;;;;;;24.40;22.50;;;;;;;11.18;100.00;101070.41;5012348;28;20526;-82
2023/11/19 10:36:38;;;;;;;24.13;22.33;;;;;;;9.78;100.00;101072.31;5015657;28;20515;-82
2023/11/19 10:39:05;;;;;;;23.77;22.15;;;;;;;11.68;100.00;101065.56;5017371;28;20081;-81
2023/11/19 10:41:33;;;;;;;23.67;22.02;;;;;;;9.59;100.00;101068.50;5016899;28;20046;-82
2023/11/19 10:44:01;;;;;;;24.15;22.48;;;;;;;10.23;100.00;101062.22;5015200;28;20478;-82
2023/11/19 10:46:40;;;;;;;23.48;21.88;;;;;;;9.41;100.00;101065.47;5016617;28;20054;-83
2023/11/19 10:49:10;;;;;;;26.00;23.70;;;;;;;9.69;100.00;101077.97;5019292;28;20077;-83
2023/11/19 10:51:37;;;;;;;23.10;21.50;;;;;;;10.84;100.00;101060.72;5016703;28;20413;-85
2023/11/19 10:54:06;;;;;;;23.23;21.52;;;;;;;10.77;100.00;101053.53;5016840;28;20041;-82
2023/11/19 10:56:34;;;;;;;23.38;21.77;;;;;;;10.84;100.00;101064.19;5010805;28;20489;-83
2023/11/19 10:59:03;;;;;;;24.85;23.15;;;;;;;11.75;100.00;101063.72;5014779;28;20124;-82
2023/11/19 11:01:38;;;;;;;25.27;23.48;;;;;;;10.97;100.00;101055.44;5016856;28;20511;-81
2023/11/19 11:04:11;;;;;;;24.55;22.65;;;;;;;10.33;100.00;101067.22;5014652;28;20056;-81
2023/11/19 11:06:39;;;;;;;25.50;23.50;;;;;;;9.50;100.00;101060.84;5019252;28;20061;-82
2023/11/19 11:09:11;;;;;;;24.73;22.92;;;;;;;10.69;100.00;101055.53;5015861;28;20046;-81